sensor_id;sensor_type;location;lat;lon;timestamp;pressure;altitude;pressure_sealevel;temperature;humidity
16834;BME280;8533;48.426;10.868;2023-02-21T00:00:42;96615.95;;;5.09;100.00
16834;BME280;8533;48.426;10.868;2023-02-21T00:03:27;96624.42;;;5.07;100.00
16834;BME280;8533;48.426;10.868;2023-02-21T00:06:13;96615.05;;;5.06;100.00
16834;BME280;8533;48.426;10.868;2023-02-21T00:08:58;96614.73;;;5.05;100.00
16834;BME280;8533;48.426;10.868;2023-02-21T00:11:43;96612.15;;;5.05;100.00
16834;BME280;8533;48.426;10.868;2023-02-21T00:14:28;96606.19;;;5.11;100.00
16834;BME280;8533;48.426;10.868;2023-02-21T00:17:14;96615.34;;;5.13;100.00
16834;BME280;8533;48.426;10.868;2023-02-21T00:19:59;96613.17;;;5.17;100.00
16834;BME280;8533;48.426;10.868;2023-02-21T00:22:45;96611.07;;;5.16;100.00
16834;BME280;8533;48.426;10.868;2023-02-21T00:25:31;96607.48;;;5.17;100.00
16834;BME280;8533;48.426;10.868;2023-02-21T00:28:16;96602.37;;;5.20;100.00
16834;BME280;8533;48.426;10.868;2023-02-21T00:31:02;96597.50;;;5.21;100.00
16834;BME280;8533;48.426;10.868;2023-02-21T00:33:47;96597.42;;;5.18;100.00
16834;BME280;8533;48.426;10.868;2023-02-21T00:36:32;96598.80;;;5.21;100.00
16834;BME280;8533;48.426;10.868;2023-02-21T00:39:17;96593.03;;;5.19;100.00
16834;BME280;8533;48.426;10.868;2023-02-21T00:42:03;96599.30;;;5.14;100.00
16834;BME280;8533;48.426;10.868;2023-02-21T00:44:49;96594.00;;;5.11;100.00
16834;BME280;8533;48.426;10.868;2023-02-21T00:47:34;96604.59;;;5.10;100.00
16834;BME280;8533;48.426;10.868;2023-02-21T00:50:19;96603.19;;;5.07;100.00
16834;BME280;8533;48.426;10.868;2023-02-21T00:53:05;96607.57;;;5.00;100.00
16834;BME280;8533;48.426;10.868;2023-02-21T00:55:50;96605.28;;;4.94;100.00
16834;BME280;8533;48.426;10.868;2023-02-21T00:58:35;96595.38;;;4.87;100.00
16834;BME280;8533;48.426;10.868;2023-02-21T01:01:20;96591.68;;;4.79;100.00
16834;BME280;8533;48.426;10.868;2023-02-21T01:04:05;96586.30;;;4.74;100.00
16834;BME280;8533;48.426;10.868;2023-02-21T01:06:51;96581.11;;;4.68;100.00
16834;BME280;8533;48.426;10.868;2023-02-21T01:09:36;96584.98;;;4.61;100.00
16834;BME280;8533;48.426;10.868;2023-02-21T01:12:21;96584.45;;;4.55;100.00
16834;BME280;8533;48.426;10.868;2023-02-21T01:15:07;96581.36;;;4.49;100.00
16834;BME280;8533;48.426;10.868;2023-02-21T01:17:52;96581.16;;;4.44;100.00
16834;BME280;8533;48.426;10.868;2023-02-21T01:20:37;96577.34;;;4.40;100.00
16834;BME280;8533;48.426;10.868;2023-02-21T01:23:22;96579.55;;;4.36;100.00
16834;BME280;8533;48.426;10.868;2023-02-21T01:26:08;96581.83;;;4.35;100.00
16834;BME280;8533;48.426;10.868;2023-02-21T01:28:54;96585.59;;;4.33;100.00
16834;BME280;8533;48.426;10.868;2023-02-21T01:31:39;96582.12;;;4.30;100.00
16834;BME280;8533;48.426;10.868;2023-02-21T01:34:24;96579.41;;;4.27;100.00
16834;BME280;8533;48.426;10.868;2023-02-21T01:37:10;96573.13;;;4.26;100.00
16834;BME280;8533;48.426;10.868;2023-02-21T01:39:55;96570.05;;;4.26;100.00
16834;BME280;8533;48.426;10.868;2023-02-21T01:42:40;96569.25;;;4.26;100.00
16834;BME280;8533;48.426;10.868;2023-02-21T01:48:27;96559.20;;;4.27;100.00
16834;BME280;8533;48.426;10.868;2023-02-21T01:51:15;96559.20;;;4.27;100.00
16834;BME280;8533;48.426;10.868;2023-02-21T01:54:03;96559.69;;;4.26;100.00
16834;BME280;8533;48.426;10.868;2023-02-21T01:56:48;96562.09;;;4.28;100.00
16834;BME280;8533;48.426;10.868;2023-02-21T01:59:34;96552.34;;;4.30;100.00
16834;BME280;8533;48.426;10.868;2023-02-21T02:02:33;96550.14;;;4.33;100.00
16834;BME280;8533;48.426;10.868;2023-02-21T02:05:17;96549.27;;;4.37;100.00
16834;BME280;8533;48.426;10.868;2023-02-21T02:08:03;96548.78;;;4.37;100.00
16834;BME280;8533;48.426;10.868;2023-02-21T02:10:50;96547.37;;;4.35;100.00
16834;BME280;8533;48.426;10.868;2023-02-21T02:16:55;96548.65;;;4.28;100.00
16834;BME280;8533;48.426;10.868;2023-02-21T02:22:38;96545.20;;;4.14;100.00
16834;BME280;8533;48.426;10.868;2023-02-21T02:25:15;96548.08;;;4.09;100.00
16834;BME280;8533;48.426;10.868;2023-02-21T02:27:43;96545.78;;;4.03;100.00
16834;BME280;8533;48.426;10.868;2023-02-21T02:30:18;96541.66;;;3.98;100.00
16834;BME280;8533;48.426;10.868;2023-02-21T02:44:05;96535.50;;;3.99;100.00
16834;BME280;8533;48.426;10.868;2023-02-21T02:46:29;96533.09;;;3.98;100.00
16834;BME280;8533;48.426;10.868;2023-02-21T02:51:34;96539.97;;;3.95;100.00
16834;BME280;8533;48.426;10.868;2023-02-21T02:54:02;96535.66;;;3.91;100.00
16834;BME280;8533;48.426;10.868;2023-02-21T02:56:29;96536.65;;;3.90;100.00
16834;BME280;8533;48.426;10.868;2023-02-21T02:59:10;96539.55;;;3.91;100.00
16834;BME280;8533;48.426;10.868;2023-02-21T03:15:18;96535.03;;;3.82;100.00
16834;BME280;8533;48.426;10.868;2023-02-21T03:17:53;96544.30;;;3.81;100.00
16834;BME280;8533;48.426;10.868;2023-02-21T03:20:20;96551.27;;;3.80;100.00
16834;BME280;8533;48.426;10.868;2023-02-21T03:22:49;96537.83;;;3.81;100.00
16834;BME280;8533;48.426;10.868;2023-02-21T03:25:20;96535.83;;;3.83;100.00
16834;BME280;8533;48.426;10.868;2023-02-21T03:27:50;96540.51;;;3.83;100.00
16834;BME280;8533;48.426;10.868;2023-02-21T03:30:19;96533.55;;;3.84;100.00
16834;BME280;8533;48.426;10.868;2023-02-21T03:32:49;96533.17;;;3.87;100.00
16834;BME280;8533;48.426;10.868;2023-02-21T03:35:19;96531.58;;;3.86;100.00
16834;BME280;8533;48.426;10.868;2023-02-21T03:37:49;96533.55;;;3.84;100.00
16834;BME280;8533;48.426;10.868;2023-02-21T03:42:52;96529.16;;;3.78;100.00
16834;BME280;8533;48.426;10.868;2023-02-21T03:45:20;96526.75;;;3.76;100.00
16834;BME280;8533;48.426;10.868;2023-02-21T03:47:47;96534.11;;;3.73;100.00
16834;BME280;8533;48.426;10.868;2023-02-21T03:50:15;96529.31;;;3.70;100.00
16834;BME280;8533;48.426;10.868;2023-02-21T03:52:43;96525.50;;;3.66;100.00
16834;BME280;8533;48.426;10.868;2023-02-21T03:55:11;96521.83;;;3.64;100.00
16834;BME280;8533;48.426;10.868;2023-02-21T03:57:38;96522.33;;;3.64;100.00
16834;BME280;8533;48.426;10.868;2023-02-21T04:00:06;96520.11;;;3.61;100.00
16834;BME280;8533;48.426;10.868;2023-02-21T04:02:34;96511.92;;;3.57;100.00
16834;BME280;8533;48.426;10.868;2023-02-21T04:05:01;96511.65;;;3.56;100.00
16834;BME280;8533;48.426;10.868;2023-02-21T04:07:28;96504.97;;;3.58;100.00
16834;BME280;8533;48.426;10.868;2023-02-21T04:09:56;96506.69;;;3.61;100.00
16834;BME280;8533;48.426;10.868;2023-02-21T04:12:24;96507.00;;;3.62;100.00
16834;BME280;8533;48.426;10.868;2023-02-21T04:14:51;96506.31;;;3.64;100.00
16834;BME280;8533;48.426;10.868;2023-02-21T04:17:21;96502.22;;;3.66;100.00
16834;BME280;8533;48.426;10.868;2023-02-21T04:19:49;96501.73;;;3.66;100.00
16834;BME280;8533;48.426;10.868;2023-02-21T04:22:16;96498.95;;;3.68;100.00
16834;BME280;8533;48.426;10.868;2023-02-21T04:24:44;96505.36;;;3.72;100.00
16834;BME280;8533;48.426;10.868;2023-02-21T04:27:14;96505.14;;;3.73;100.00
16834;BME280;8533;48.426;10.868;2023-02-21T04:29:42;96510.31;;;3.73;100.00
16834;BME280;8533;48.426;10.868;2023-02-21T04:32:10;96503.16;;;3.75;100.00
16834;BME280;8533;48.426;10.868;2023-02-21T04:34:37;96505.19;;;3.80;100.00
16834;BME280;8533;48.426;10.868;2023-02-21T04:37:05;96503.28;;;3.78;100.00
16834;BME280;8533;48.426;10.868;2023-02-21T04:39:32;96509.63;;;3.75;100.00
16834;BME280;8533;48.426;10.868;2023-02-21T04:41:59;96511.82;;;3.72;100.00
16834;BME280;8533;48.426;10.868;2023-02-21T04:44:27;96513.46;;;3.62;100.00
16834;BME280;8533;48.426;10.868;2023-02-21T04:46:54;96513.31;;;3.53;100.00
16834;BME280;8533;48.426;10.868;2023-02-21T04:49:22;96515.75;;;3.44;100.00
16834;BME280;8533;48.426;10.868;2023-02-21T04:51:51;96514.11;;;3.36;100.00
16834;BME280;8533;48.426;10.868;2023-02-21T04:54:18;96516.94;;;3.24;100.00
16834;BME280;8533;48.426;10.868;2023-02-21T04:56:46;96515.98;;;3.15;100.00
16834;BME280;8533;48.426;10.868;2023-02-21T04:59:13;96522.19;;;3.10;100.00
16834;BME280;8533;48.426;10.868;2023-02-21T05:01:41;96514.09;;;3.02;100.00
16834;BME280;8533;48.426;10.868;2023-02-21T05:04:08;96514.48;;;2.99;100.00
16834;BME280;8533;48.426;10.868;2023-02-21T05:06:35;96513.11;;;2.92;100.00
16834;BME280;8533;48.426;10.868;2023-02-21T05:09:03;96509.76;;;2.92;100.00
16834;BME280;8533;48.426;10.868;2023-02-21T05:11:33;96506.16;;;2.93;100.00
16834;BME280;8533;48.426;10.868;2023-02-21T05:14:01;96508.88;;;2.95;100.00
16834;BME280;8533;48.426;10.868;2023-02-21T05:16:29;96498.09;;;3.02;100.00
16834;BME280;8533;48.426;10.868;2023-02-21T05:18:56;96501.02;;;3.10;100.00
16834;BME280;8533;48.426;10.868;2023-02-21T05:21:23;96499.36;;;3.13;100.00
16834;BME280;8533;48.426;10.868;2023-02-21T05:23:52;96489.43;;;3.17;100.00
16834;BME280;8533;48.426;10.868;2023-02-21T05:26:27;96498.91;;;3.20;100.00
16834;BME280;8533;48.426;10.868;2023-02-21T05:28:56;96495.65;;;3.22;100.00
16834;BME280;8533;48.426;10.868;2023-02-21T05:31:23;96486.97;;;3.19;100.00
16834;BME280;8533;48.426;10.868;2023-02-21T05:33:50;96489.55;;;3.19;100.00
16834;BME280;8533;48.426;10.868;2023-02-21T05:36:18;96483.52;;;3.23;100.00
16834;BME280;8533;48.426;10.868;2023-02-21T05:38:48;96487.50;;;3.25;100.00
16834;BME280;8533;48.426;10.868;2023-02-21T05:41:17;96487.50;;;3.25;100.00
16834;BME280;8533;48.426;10.868;2023-02-21T05:43:46;96488.30;;;3.26;100.00
16834;BME280;8533;48.426;10.868;2023-02-21T05:46:22;96485.92;;;3.24;100.00
16834;BME280;8533;48.426;10.868;2023-02-21T05:48:50;96483.62;;;3.25;100.00
16834;BME280;8533;48.426;10.868;2023-02-21T05:51:18;96490.08;;;3.25;100.00
16834;BME280;8533;48.426;10.868;2023-02-21T05:53:46;96489.71;;;3.28;100.00
16834;BME280;8533;48.426;10.868;2023-02-21T05:56:15;96489.84;;;3.31;100.00
16834;BME280;8533;48.426;10.868;2023-02-21T05:58:43;96502.05;;;3.33;100.00
16834;BME280;8533;48.426;10.868;2023-02-21T06:01:11;96498.30;;;3.35;100.00
16834;BME280;8533;48.426;10.868;2023-02-21T06:03:39;96492.14;;;3.36;100.00
16834;BME280;8533;48.426;10.868;2023-02-21T06:06:07;96494.11;;;3.34;100.00
16834;BME280;8533;48.426;10.868;2023-02-21T06:08:43;96494.81;;;3.32;100.00
16834;BME280;8533;48.426;10.868;2023-02-21T06:11:10;96495.00;;;3.31;100.00
16834;BME280;8533;48.426;10.868;2023-02-21T06:13:37;96501.95;;;3.30;100.00
16834;BME280;8533;48.426;10.868;2023-02-21T06:16:06;96498.45;;;3.27;100.00
16834;BME280;8533;48.426;10.868;2023-02-21T06:18:34;96500.72;;;3.26;100.00
16834;BME280;8533;48.426;10.868;2023-02-21T06:21:01;96502.20;;;3.25;100.00
16834;BME280;8533;48.426;10.868;2023-02-21T06:23:29;96503.70;;;3.23;100.00
16834;BME280;8533;48.426;10.868;2023-02-21T06:25:57;96503.58;;;3.21;100.00
16834;BME280;8533;48.426;10.868;2023-02-21T06:28:31;96511.16;;;3.22;100.00
16834;BME280;8533;48.426;10.868;2023-02-21T06:30:58;96507.89;;;3.24;100.00
16834;BME280;8533;48.426;10.868;2023-02-21T06:33:26;96510.66;;;3.23;100.00
16834;BME280;8533;48.426;10.868;2023-02-21T06:35:54;96506.75;;;3.16;100.00
16834;BME280;8533;48.426;10.868;2023-02-21T06:38:22;96513.95;;;3.27;100.00
16834;BME280;8533;48.426;10.868;2023-02-21T06:40:49;96511.63;;;3.32;100.00
16834;BME280;8533;48.426;10.868;2023-02-21T06:43:17;96515.93;;;3.42;100.00
16834;BME280;8533;48.426;10.868;2023-02-21T06:45:44;96518.45;;;3.47;100.00
16834;BME280;8533;48.426;10.868;2023-02-21T06:48:15;96517.25;;;3.49;100.00
16834;BME280;8533;48.426;10.868;2023-02-21T06:50:43;96526.73;;;3.53;100.00
16834;BME280;8533;48.426;10.868;2023-02-21T06:53:11;96530.83;;;3.58;100.00
16834;BME280;8533;48.426;10.868;2023-02-21T06:55:39;96527.50;;;3.64;100.00
16834;BME280;8533;48.426;10.868;2023-02-21T06:58:07;96531.09;;;3.69;100.00
16834;BME280;8533;48.426;10.868;2023-02-21T07:00:34;96529.52;;;3.75;100.00
16834;BME280;8533;48.426;10.868;2023-02-21T07:03:02;96531.06;;;3.80;100.00
16834;BME280;8533;48.426;10.868;2023-02-21T07:05:29;96528.98;;;3.86;100.00
16834;BME280;8533;48.426;10.868;2023-02-21T07:07:59;96532.70;;;3.94;100.00
16834;BME280;8533;48.426;10.868;2023-02-21T07:10:27;96538.70;;;4.01;100.00
16834;BME280;8533;48.426;10.868;2023-02-21T07:12:56;96540.69;;;4.06;100.00
16834;BME280;8533;48.426;10.868;2023-02-21T07:15:23;96535.94;;;4.09;100.00
16834;BME280;8533;48.426;10.868;2023-02-21T07:17:50;96544.83;;;4.17;100.00
16834;BME280;8533;48.426;10.868;2023-02-21T07:20:18;96547.85;;;4.28;100.00
16834;BME280;8533;48.426;10.868;2023-02-21T07:22:46;96547.17;;;4.36;100.00
16834;BME280;8533;48.426;10.868;2023-02-21T07:25:16;96541.33;;;4.45;100.00
16834;BME280;8533;48.426;10.868;2023-02-21T07:27:46;96540.64;;;4.53;100.00
16834;BME280;8533;48.426;10.868;2023-02-21T07:30:15;96544.62;;;4.63;100.00
16834;BME280;8533;48.426;10.868;2023-02-21T07:32:42;96550.41;;;4.71;100.00
16834;BME280;8533;48.426;10.868;2023-02-21T07:35:10;96552.53;;;4.78;100.00
16834;BME280;8533;48.426;10.868;2023-02-21T07:37:38;96548.45;;;4.86;100.00
16834;BME280;8533;48.426;10.868;2023-02-21T07:40:06;96543.84;;;4.95;100.00
16834;BME280;8533;48.426;10.868;2023-02-21T07:42:34;96541.97;;;5.06;100.00
16834;BME280;8533;48.426;10.868;2023-02-21T07:45:02;96546.14;;;5.14;100.00
16834;BME280;8533;48.426;10.868;2023-02-21T07:47:29;96550.05;;;5.27;100.00
16834;BME280;8533;48.426;10.868;2023-02-21T07:49:57;96548.23;;;5.34;100.00
16834;BME280;8533;48.426;10.868;2023-02-21T07:52:24;96547.11;;;5.46;100.00
16834;BME280;8533;48.426;10.868;2023-02-21T07:54:51;96538.81;;;5.59;100.00
16834;BME280;8533;48.426;10.868;2023-02-21T07:57:19;96544.66;;;5.70;100.00
16834;BME280;8533;48.426;10.868;2023-02-21T07:59:48;96544.64;;;5.84;100.00
16834;BME280;8533;48.426;10.868;2023-02-21T08:02:15;96549.83;;;5.90;100.00
16834;BME280;8533;48.426;10.868;2023-02-21T08:04:43;96548.87;;;6.00;100.00
16834;BME280;8533;48.426;10.868;2023-02-21T08:07:10;96545.84;;;6.10;100.00
16834;BME280;8533;48.426;10.868;2023-02-21T08:09:37;96544.31;;;6.18;100.00
16834;BME280;8533;48.426;10.868;2023-02-21T08:12:07;96548.77;;;6.27;100.00
16834;BME280;8533;48.426;10.868;2023-02-21T08:14:34;96542.23;;;6.33;100.00
16834;BME280;8533;48.426;10.868;2023-02-21T08:17:01;96542.59;;;6.43;100.00
16834;BME280;8533;48.426;10.868;2023-02-21T08:19:29;96545.38;;;6.48;100.00
16834;BME280;8533;48.426;10.868;2023-02-21T08:21:56;96541.50;;;6.58;100.00
16834;BME280;8533;48.426;10.868;2023-02-21T08:24:24;96539.95;;;6.66;100.00
16834;BME280;8533;48.426;10.868;2023-02-21T08:26:52;96539.24;;;6.68;100.00
16834;BME280;8533;48.426;10.868;2023-02-21T08:29:19;96540.58;;;6.77;100.00
16834;BME280;8533;48.426;10.868;2023-02-21T08:31:47;96539.68;;;6.89;100.00
16834;BME280;8533;48.426;10.868;2023-02-21T08:34:14;96539.06;;;6.94;100.00
16834;BME280;8533;48.426;10.868;2023-02-21T08:36:43;96537.70;;;7.01;100.00
16834;BME280;8533;48.426;10.868;2023-02-21T08:39:10;96545.12;;;7.13;100.00
16834;BME280;8533;48.426;10.868;2023-02-21T08:41:47;96544.86;;;7.21;100.00
16834;BME280;8533;48.426;10.868;2023-02-21T08:44:14;96552.45;;;7.32;100.00
16834;BME280;8533;48.426;10.868;2023-02-21T08:46:43;96547.44;;;7.46;98.53
16834;BME280;8533;48.426;10.868;2023-02-21T08:49:10;96549.39;;;7.59;96.65
16834;BME280;8533;48.426;10.868;2023-02-21T08:51:38;96547.31;;;7.68;95.27
16834;BME280;8533;48.426;10.868;2023-02-21T08:54:07;96555.98;;;7.80;93.84
16834;BME280;8533;48.426;10.868;2023-02-21T08:56:35;96553.67;;;7.90;93.29
16834;BME280;8533;48.426;10.868;2023-02-21T08:59:03;96550.56;;;8.00;93.22
16834;BME280;8533;48.426;10.868;2023-02-21T09:01:33;96557.70;;;8.14;91.30
16834;BME280;8533;48.426;10.868;2023-02-21T09:04:02;96548.60;;;8.32;89.39
16834;BME280;8533;48.426;10.868;2023-02-21T09:06:30;96542.17;;;8.55;87.71
16834;BME280;8533;48.426;10.868;2023-02-21T09:08:58;96550.08;;;8.69;86.19
16834;BME280;8533;48.426;10.868;2023-02-21T09:11:25;96546.73;;;8.80;85.68
16834;BME280;8533;48.426;10.868;2023-02-21T09:13:52;96552.82;;;8.95;83.67
16834;BME280;8533;48.426;10.868;2023-02-21T09:16:20;96548.83;;;9.13;82.53
16834;BME280;8533;48.426;10.868;2023-02-21T09:18:58;96545.44;;;9.36;81.70
16834;BME280;8533;48.426;10.868;2023-02-21T09:21:31;96543.35;;;9.47;79.75
16834;BME280;8533;48.426;10.868;2023-02-21T09:23:58;96544.25;;;9.65;78.83
16834;BME280;8533;48.426;10.868;2023-02-21T09:26:28;96542.98;;;9.79;78.15
16834;BME280;8533;48.426;10.868;2023-02-21T09:28:58;96548.45;;;9.91;78.29
16834;BME280;8533;48.426;10.868;2023-02-21T09:31:25;96544.45;;;10.12;77.29
16834;BME280;8533;48.426;10.868;2023-02-21T09:33:54;96541.36;;;10.41;76.55
16834;BME280;8533;48.426;10.868;2023-02-21T09:36:22;96540.70;;;10.77;74.33
16834;BME280;8533;48.426;10.868;2023-02-21T09:38:51;96536.14;;;11.20;72.39
16834;BME280;8533;48.426;10.868;2023-02-21T09:41:19;96535.30;;;11.69;69.50
16834;BME280;8533;48.426;10.868;2023-02-21T09:43:49;96532.89;;;12.04;66.28
16834;BME280;8533;48.426;10.868;2023-02-21T09:46:37;96531.69;;;12.36;65.22
16834;BME280;8533;48.426;10.868;2023-02-21T09:49:11;96532.56;;;13.00;63.41
16834;BME280;8533;48.426;10.868;2023-02-21T09:51:35;96532.51;;;14.13;59.75
16834;BME280;8533;48.426;10.868;2023-02-21T09:54:04;96487.37;;;14.39;56.89
16834;BME280;8533;48.426;10.868;2023-02-21T09:56:34;96526.94;;;15.03;54.17
16834;BME280;8533;48.426;10.868;2023-02-21T09:59:02;96525.89;;;15.29;53.59
16834;BME280;8533;48.426;10.868;2023-02-21T10:09:48;96532.22;;;14.02;54.96
16834;BME280;8533;48.426;10.868;2023-02-21T10:12:34;96527.84;;;14.36;54.76
16834;BME280;8533;48.426;10.868;2023-02-21T10:18:01;96528.55;;;14.11;55.65
16834;BME280;8533;48.426;10.868;2023-02-21T10:20:44;96526.14;;;14.79;53.71
16834;BME280;8533;48.426;10.868;2023-02-21T10:23:15;96524.53;;;14.63;53.67
16834;BME280;8533;48.426;10.868;2023-02-21T10:25:44;96528.20;;;14.49;54.01
16834;BME280;8533;48.426;10.868;2023-02-21T10:28:24;96532.30;;;13.68;53.22
16834;BME280;8533;48.426;10.868;2023-02-21T10:30:48;96529.19;;;13.34;54.07
16834;BME280;8533;48.426;10.868;2023-02-21T10:33:16;96530.58;;;13.12;54.61
16834;BME280;8533;48.426;10.868;2023-02-21T10:35:44;96533.11;;;13.02;55.24
16834;BME280;8533;48.426;10.868;2023-02-21T10:38:15;96535.38;;;12.91;55.43
16834;BME280;8533;48.426;10.868;2023-02-21T10:40:57;96527.05;;;12.70;56.05
16834;BME280;8533;48.426;10.868;2023-02-21T10:43:30;96534.96;;;12.75;55.76
16834;BME280;8533;48.426;10.868;2023-02-21T10:48:42;96531.20;;;12.66;56.88
16834;BME280;8533;48.426;10.868;2023-02-21T10:51:36;96529.81;;;12.58;56.60
16834;BME280;8533;48.426;10.868;2023-02-21T10:53:46;96532.64;;;12.51;57.39
16834;BME280;8533;48.426;10.868;2023-02-21T10:56:24;96527.55;;;12.42;57.94
16834;BME280;8533;48.426;10.868;2023-02-21T11:04:01;96514.92;;;12.93;56.25
16834;BME280;8533;48.426;10.868;2023-02-21T11:06:34;96506.94;;;13.12;55.59
16834;BME280;8533;48.426;10.868;2023-02-21T11:12:33;96501.90;;;13.38;55.77
16834;BME280;8533;48.426;10.868;2023-02-21T11:14:24;96497.64;;;13.29;56.35
16834;BME280;8533;48.426;10.868;2023-02-21T11:19:52;96490.47;;;13.19;57.67
16834;BME280;8533;48.426;10.868;2023-02-21T11:22:24;96485.89;;;13.47;56.57
16834;BME280;8533;48.426;10.868;2023-02-21T11:25:02;96476.27;;;13.60;55.83
16834;BME280;8533;48.426;10.868;2023-02-21T11:27:28;96473.66;;;13.65;55.69
16834;BME280;8533;48.426;10.868;2023-02-21T11:29:57;96473.86;;;13.56;56.32
16834;BME280;8533;48.426;10.868;2023-02-21T11:35:23;96465.88;;;13.38;57.41
16834;BME280;8533;48.426;10.868;2023-02-21T11:37:30;96467.19;;;13.38;57.31
16834;BME280;8533;48.426;10.868;2023-02-21T11:39:58;96459.85;;;13.40;56.97
16834;BME280;8533;48.426;10.868;2023-02-21T11:42:30;96452.47;;;13.34;58.43
16834;BME280;8533;48.426;10.868;2023-02-21T11:45:16;96453.67;;;13.17;58.22
16834;BME280;8533;48.426;10.868;2023-02-21T11:47:51;96444.56;;;13.32;57.69
16834;BME280;8533;48.426;10.868;2023-02-21T11:50:22;96440.70;;;13.47;57.37
16834;BME280;8533;48.426;10.868;2023-02-21T11:53:05;96441.81;;;13.54;56.70
16834;BME280;8533;48.426;10.868;2023-02-21T11:55:31;96431.63;;;13.72;56.69
16834;BME280;8533;48.426;10.868;2023-02-21T11:58:08;96431.70;;;13.95;55.04
16834;BME280;8533;48.426;10.868;2023-02-21T12:00:56;96425.42;;;14.11;54.37
16834;BME280;8533;48.426;10.868;2023-02-21T12:11:59;96415.53;;;14.64;53.97
16834;BME280;8533;48.426;10.868;2023-02-21T12:14:45;96413.67;;;14.87;52.81
16834;BME280;8533;48.426;10.868;2023-02-21T12:28:12;96398.80;;;15.47;51.11
16834;BME280;8533;48.426;10.868;2023-02-21T12:30:53;96392.02;;;15.95;50.55
16834;BME280;8533;48.426;10.868;2023-02-21T12:36:12;96376.00;;;16.23;48.74
16834;BME280;8533;48.426;10.868;2023-02-21T12:44:25;96376.30;;;14.75;52.00
16834;BME280;8533;48.426;10.868;2023-02-21T12:47:03;96368.75;;;15.46;51.26
16834;BME280;8533;48.426;10.868;2023-02-21T12:49:38;96366.14;;;15.36;51.46
16834;BME280;8533;48.426;10.868;2023-02-21T12:52:05;96354.67;;;14.86;51.84
16834;BME280;8533;48.426;10.868;2023-02-21T12:54:42;96351.27;;;14.80;51.94
16834;BME280;8533;48.426;10.868;2023-02-21T12:57:16;96344.65;;;14.93;51.73
16834;BME280;8533;48.426;10.868;2023-02-21T12:59:54;96338.88;;;15.68;50.87
16834;BME280;8533;48.426;10.868;2023-02-21T13:02:39;96341.59;;;15.99;49.51
16834;BME280;8533;48.426;10.868;2023-02-21T13:05:04;96335.94;;;16.16;49.03
16834;BME280;8533;48.426;10.868;2023-02-21T13:07:49;96334.47;;;15.48;50.44
16834;BME280;8533;48.426;10.868;2023-02-21T13:10:21;96326.11;;;15.31;51.02
16834;BME280;8533;48.426;10.868;2023-02-21T13:13:08;96320.72;;;15.59;50.71
16834;BME280;8533;48.426;10.868;2023-02-21T13:15:36;96317.08;;;15.42;50.80
16834;BME280;8533;48.426;10.868;2023-02-21T13:18:24;96310.40;;;16.07;48.99
16834;BME280;8533;48.426;10.868;2023-02-21T13:20:59;96308.98;;;16.53;48.40
16834;BME280;8533;48.426;10.868;2023-02-21T13:23:24;96297.16;;;16.77;47.93
16834;BME280;8533;48.426;10.868;2023-02-21T13:29:19;96293.25;;;16.96;46.86
16834;BME280;8533;48.426;10.868;2023-02-21T13:31:45;96286.95;;;16.94;46.85
16834;BME280;8533;48.426;10.868;2023-02-21T13:34:17;96283.85;;;16.29;48.04
16834;BME280;8533;48.426;10.868;2023-02-21T13:36:46;96280.82;;;16.12;48.66
16834;BME280;8533;48.426;10.868;2023-02-21T13:39:21;96278.21;;;15.71;50.33
16834;BME280;8533;48.426;10.868;2023-02-21T13:42:00;96268.36;;;16.18;48.98
16834;BME280;8533;48.426;10.868;2023-02-21T13:44:30;96267.17;;;16.31;49.14
16834;BME280;8533;48.426;10.868;2023-02-21T13:47:04;96265.56;;;15.68;49.51
16834;BME280;8533;48.426;10.868;2023-02-21T13:49:38;96260.50;;;16.13;49.44
16834;BME280;8533;48.426;10.868;2023-02-21T13:52:26;96261.19;;;15.48;49.70
16834;BME280;8533;48.426;10.868;2023-02-21T13:57:42;96247.91;;;15.14;50.90
16834;BME280;8533;48.426;10.868;2023-02-21T14:08:42;96230.63;;;16.17;49.30
16834;BME280;8533;48.426;10.868;2023-02-21T14:11:22;96229.48;;;15.97;49.32
16834;BME280;8533;48.426;10.868;2023-02-21T14:13:48;96225.27;;;15.96;50.19
16834;BME280;8533;48.426;10.868;2023-02-21T14:16:44;96222.34;;;16.29;49.59
16834;BME280;8533;48.426;10.868;2023-02-21T14:19:07;96220.72;;;16.30;49.10
16834;BME280;8533;48.426;10.868;2023-02-21T14:21:46;96213.42;;;16.49;47.55
16834;BME280;8533;48.426;10.868;2023-02-21T14:24:23;96214.82;;;16.70;47.53
16834;BME280;8533;48.426;10.868;2023-02-21T14:29:42;96209.33;;;16.37;48.46
16834;BME280;8533;48.426;10.868;2023-02-21T14:32:16;96207.93;;;16.16;48.87
16834;BME280;8533;48.426;10.868;2023-02-21T14:37:31;96200.97;;;15.21;50.15
16834;BME280;8533;48.426;10.868;2023-02-21T14:45:34;96195.80;;;15.86;50.00
16834;BME280;8533;48.426;10.868;2023-02-21T14:48:06;96189.91;;;15.97;49.48
16834;BME280;8533;48.426;10.868;2023-02-21T14:53:42;96189.55;;;15.75;49.25
16834;BME280;8533;48.426;10.868;2023-02-21T15:07:19;96170.28;;;15.79;49.20
16834;BME280;8533;48.426;10.868;2023-02-21T15:12:16;96166.05;;;15.81;49.42
16834;BME280;8533;48.426;10.868;2023-02-21T15:14:49;96165.92;;;15.64;50.82
16834;BME280;8533;48.426;10.868;2023-02-21T15:17:21;96169.30;;;15.26;52.23
16834;BME280;8533;48.426;10.868;2023-02-21T15:20:05;96165.44;;;15.13;52.26
16834;BME280;8533;48.426;10.868;2023-02-21T15:22:32;96167.33;;;15.05;53.06
16834;BME280;8533;48.426;10.868;2023-02-21T15:27:37;96160.08;;;14.79;54.42
16834;BME280;8533;48.426;10.868;2023-02-21T15:30:13;96166.96;;;14.68;54.52
16834;BME280;8533;48.426;10.868;2023-02-21T15:32:36;96164.69;;;14.51;55.05
16834;BME280;8533;48.426;10.868;2023-02-21T15:35:09;96159.39;;;14.56;54.88
16834;BME280;8533;48.426;10.868;2023-02-21T15:37:37;96156.73;;;14.66;54.25
16834;BME280;8533;48.426;10.868;2023-02-21T15:40:19;96158.63;;;14.38;54.82
16834;BME280;8533;48.426;10.868;2023-02-21T15:42:41;96162.09;;;14.26;55.05
16834;BME280;8533;48.426;10.868;2023-02-21T15:45:32;96155.25;;;14.22;55.72
16834;BME280;8533;48.426;10.868;2023-02-21T15:48:00;96157.90;;;14.14;56.67